sensor_id;sensor_type;location;lat;lon;timestamp;pressure;altitude;pressure_sealevel;temperature;humidity
46394;BME280;32099;53.588;10.176;2023-12-29T00:00:46;99994.94;;;10.64;78.47
46394;BME280;32099;53.588;10.176;2023-12-29T00:03:12;100004.97;;;10.63;78.84
46394;BME280;32099;53.588;10.176;2023-12-29T00:05:37;100012.72;;;10.60;79.76
46394;BME280;32099;53.588;10.176;2023-12-29T00:08:03;100025.28;;;10.54;81.94
46394;BME280;32099;53.588;10.176;2023-12-29T00:10:29;100025.41;;;10.39;83.70
46394;BME280;32099;53.588;10.176;2023-12-29T00:12:55;100014.75;;;10.23;85.46
46394;BME280;32099;53.588;10.176;2023-12-29T00:15:21;99995.75;;;10.01;90.25
46394;BME280;32099;53.588;10.176;2023-12-29T00:17:50;99979.22;;;9.81;90.99
46394;BME280;32099;53.588;10.176;2023-12-29T00:20:15;99979.78;;;9.69;92.14
46394;BME280;32099;53.588;10.176;2023-12-29T00:22:41;99972.13;;;9.58;92.62
46394;BME280;32099;53.588;10.176;2023-12-29T00:25:07;99986.53;;;9.52;91.74
46394;BME280;32099;53.588;10.176;2023-12-29T00:27:32;99980.00;;;9.46;93.20
46394;BME280;32099;53.588;10.176;2023-12-29T00:29:58;99983.91;;;9.44;92.60
46394;BME280;32099;53.588;10.176;2023-12-29T00:32:24;99974.47;;;9.39;92.43
46394;BME280;32099;53.588;10.176;2023-12-29T00:34:53;99971.09;;;9.37;93.43
46394;BME280;32099;53.588;10.176;2023-12-29T00:37:18;99963.97;;;9.36;91.91
46394;BME280;32099;53.588;10.176;2023-12-29T00:39:44;99954.13;;;9.35;93.28
46394;BME280;32099;53.588;10.176;2023-12-29T00:42:10;99951.22;;;9.37;92.56
46394;BME280;32099;53.588;10.176;2023-12-29T00:44:36;99941.19;;;9.37;92.39
46394;BME280;32099;53.588;10.176;2023-12-29T00:47:01;99943.91;;;9.37;91.94
46394;BME280;32099;53.588;10.176;2023-12-29T00:49:27;99943.91;;;9.37;92.32
46394;BME280;32099;53.588;10.176;2023-12-29T00:51:58;99939.09;;;9.39;91.73
46394;BME280;32099;53.588;10.176;2023-12-29T00:54:23;99954.41;;;9.40;92.07
46394;BME280;32099;53.588;10.176;2023-12-29T00:56:50;99946.25;;;9.40;92.66
46394;BME280;32099;53.588;10.176;2023-12-29T00:59:15;99874.75;;;9.03;91.77
46394;BME280;32099;53.588;10.176;2023-12-29T01:01:43;99926.16;;;9.41;91.20
46394;BME280;32099;53.588;10.176;2023-12-29T01:04:08;99927.84;;;9.43;90.73
46394;BME280;32099;53.588;10.176;2023-12-29T01:06:34;99924.91;;;9.44;91.93
46394;BME280;32099;53.588;10.176;2023-12-29T01:09:03;99921.16;;;9.45;91.10
46394;BME280;32099;53.588;10.176;2023-12-29T01:11:29;99936.03;;;9.49;90.82
46394;BME280;32099;53.588;10.176;2023-12-29T01:13:55;99921.88;;;9.54;90.18
46394;BME280;32099;53.588;10.176;2023-12-29T01:16:21;99919.59;;;9.57;90.17
46394;BME280;32099;53.588;10.176;2023-12-29T01:18:47;99924.63;;;9.61;89.21
46394;BME280;32099;53.588;10.176;2023-12-29T01:21:13;99920.47;;;9.65;89.78
46394;BME280;32099;53.588;10.176;2023-12-29T01:23:39;99911.06;;;9.67;90.00
46394;BME280;32099;53.588;10.176;2023-12-29T01:26:07;99920.75;;;9.70;89.62
46394;BME280;32099;53.588;10.176;2023-12-29T01:28:34;99913.22;;;9.72;90.70
46394;BME280;32099;53.588;10.176;2023-12-29T01:30:59;99924.94;;;9.72;90.90
46394;BME280;32099;53.588;10.176;2023-12-29T01:33:25;99913.59;;;9.69;91.29
46394;BME280;32099;53.588;10.176;2023-12-29T01:35:51;99921.34;;;9.65;91.80
46394;BME280;32099;53.588;10.176;2023-12-29T01:38:17;99919.19;;;9.61;92.21
46394;BME280;32099;53.588;10.176;2023-12-29T01:40:43;99930.28;;;9.59;92.57
46394;BME280;32099;53.588;10.176;2023-12-29T01:43:12;99934.25;;;9.56;92.45
46394;BME280;32099;53.588;10.176;2023-12-29T01:45:38;99918.94;;;9.55;92.90
46394;BME280;32099;53.588;10.176;2023-12-29T01:48:04;99933.59;;;9.54;92.61
46394;BME280;32099;53.588;10.176;2023-12-29T01:50:31;99930.66;;;9.56;93.17
46394;BME280;32099;53.588;10.176;2023-12-29T01:52:57;99923.13;;;9.58;92.47
46394;BME280;32099;53.588;10.176;2023-12-29T01:55:25;99907.84;;;9.57;92.03
46394;BME280;32099;53.588;10.176;2023-12-29T01:57:51;99897.81;;;9.57;92.68
46394;BME280;32099;53.588;10.176;2023-12-29T02:00:21;99896.97;;;9.57;91.17
46394;BME280;32099;53.588;10.176;2023-12-29T02:02:47;99889.44;;;9.59;91.25
46394;BME280;32099;53.588;10.176;2023-12-29T02:05:14;99886.50;;;9.61;91.27
46394;BME280;32099;53.588;10.176;2023-12-29T02:07:42;99885.94;;;9.65;90.87
46394;BME280;32099;53.588;10.176;2023-12-29T02:10:08;99877.78;;;9.65;90.06
46394;BME280;32099;53.588;10.176;2023-12-29T02:12:34;99879.44;;;9.66;90.53
46394;BME280;32099;53.588;10.176;2023-12-29T02:15:00;99885.28;;;9.63;91.24
46394;BME280;32099;53.588;10.176;2023-12-29T02:17:31;99887.41;;;9.68;90.29
46394;BME280;32099;53.588;10.176;2023-12-29T02:20:02;99873.41;;;9.71;90.68
46394;BME280;32099;53.588;10.176;2023-12-29T02:22:29;99827.16;;;9.43;90.39
46394;BME280;32099;53.588;10.176;2023-12-29T02:24:58;99875.97;;;9.79;89.76
46394;BME280;32099;53.588;10.176;2023-12-29T02:27:28;99880.81;;;9.84;89.12
46394;BME280;32099;53.588;10.176;2023-12-29T02:30:09;99869.72;;;9.85;90.01
46394;BME280;32099;53.588;10.176;2023-12-29T02:32:38;99863.44;;;9.85;89.86
46394;BME280;32099;53.588;10.176;2023-12-29T02:35:06;99864.28;;;9.85;90.07
46394;BME280;32099;53.588;10.176;2023-12-29T02:37:36;99864.50;;;9.84;89.60
46394;BME280;32099;53.588;10.176;2023-12-29T02:40:07;99849.63;;;9.86;88.91
46394;BME280;32099;53.588;10.176;2023-12-29T02:42:33;99846.28;;;9.91;89.15
46394;BME280;32099;53.588;10.176;2023-12-29T02:44:59;99843.41;;;9.93;88.96
46394;BME280;32099;53.588;10.176;2023-12-29T02:47:25;99853.03;;;9.95;88.33
46394;BME280;32099;53.588;10.176;2023-12-29T02:49:51;99841.31;;;9.95;88.61
46394;BME280;32099;53.588;10.176;2023-12-29T02:52:17;99835.66;;;9.96;88.64
46394;BME280;32099;53.588;10.176;2023-12-29T02:54:43;99828.31;;;9.97;87.98
46394;BME280;32099;53.588;10.176;2023-12-29T02:57:12;99821.00;;;9.97;87.81
46394;BME280;32099;53.588;10.176;2023-12-29T02:59:38;99826.88;;;10.01;88.26
46394;BME280;32099;53.588;10.176;2023-12-29T03:02:05;99818.06;;;9.99;88.18
46394;BME280;32099;53.588;10.176;2023-12-29T03:04:31;99820.59;;;10.00;87.81
46394;BME280;32099;53.588;10.176;2023-12-29T03:06:57;99808.63;;;10.01;87.89
46394;BME280;32099;53.588;10.176;2023-12-29T03:09:23;99801.72;;;9.99;87.29
46394;BME280;32099;53.588;10.176;2023-12-29T03:11:48;99809.91;;;9.99;87.82
46394;BME280;32099;53.588;10.176;2023-12-29T03:14:17;99810.94;;;9.98;87.41
46394;BME280;32099;53.588;10.176;2023-12-29T03:16:43;99799.22;;;9.97;87.67
46394;BME280;32099;53.588;10.176;2023-12-29T03:19:09;99809.25;;;9.97;86.63
46394;BME280;32099;53.588;10.176;2023-12-29T03:21:35;99807.00;;;10.00;86.22
46394;BME280;32099;53.588;10.176;2023-12-29T03:24:01;99811.19;;;10.03;86.70
46394;BME280;32099;53.588;10.176;2023-12-29T03:26:29;99801.31;;;10.02;87.83
46394;BME280;32099;53.588;10.176;2023-12-29T03:28:55;99790.19;;;9.97;89.07
46394;BME280;32099;53.588;10.176;2023-12-29T03:31:24;99789.72;;;9.86;89.38
46394;BME280;32099;53.588;10.176;2023-12-29T03:33:49;99798.28;;;9.77;89.59
46394;BME280;32099;53.588;10.176;2023-12-29T03:36:15;99803.69;;;9.70;89.34
46394;BME280;32099;53.588;10.176;2023-12-29T03:38:41;99792.75;;;9.63;89.09
46394;BME280;32099;53.588;10.176;2023-12-29T03:41:07;99810.13;;;9.62;89.25
46394;BME280;32099;53.588;10.176;2023-12-29T03:43:32;99788.75;;;9.59;89.51
46394;BME280;32099;53.588;10.176;2023-12-29T03:45:58;99780.38;;;9.61;88.96
46394;BME280;32099;53.588;10.176;2023-12-29T03:48:26;99784.16;;;9.60;88.78
46394;BME280;32099;53.588;10.176;2023-12-29T03:50:52;99783.50;;;9.57;89.38
46394;BME280;32099;53.588;10.176;2023-12-29T03:53:18;99778.72;;;9.60;89.19
46394;BME280;32099;53.588;10.176;2023-12-29T03:55:43;99787.91;;;9.59;89.99
46394;BME280;32099;53.588;10.176;2023-12-29T03:58:09;99778.06;;;9.57;90.10
46394;BME280;32099;53.588;10.176;2023-12-29T04:00:35;99780.56;;;9.59;88.89
46394;BME280;32099;53.588;10.176;2023-12-29T04:03:01;99777.03;;;9.59;88.96
46394;BME280;32099;53.588;10.176;2023-12-29T04:05:29;99785.19;;;9.59;89.57
46394;BME280;32099;53.588;10.176;2023-12-29T04:07:55;99801.31;;;9.60;90.67
46394;BME280;32099;53.588;10.176;2023-12-29T04:10:20;99817.66;;;9.60;90.68
46394;BME280;32099;53.588;10.176;2023-12-29T04:12:46;99804.25;;;9.59;91.91
46394;BME280;32099;53.588;10.176;2023-12-29T04:15:12;99817.38;;;9.55;93.28
46394;BME280;32099;53.588;10.176;2023-12-29T04:17:37;99843.03;;;9.39;94.46
46394;BME280;32099;53.588;10.176;2023-12-29T04:20:03;99847.28;;;9.20;96.99
46394;BME280;32099;53.588;10.176;2023-12-29T04:22:33;99875.78;;;9.02;96.45
46394;BME280;32099;53.588;10.176;2023-12-29T04:24:58;99886.50;;;8.89;94.56
46394;BME280;32099;53.588;10.176;2023-12-29T04:27:24;99888.03;;;8.76;95.52
46394;BME280;32099;53.588;10.176;2023-12-29T04:29:50;99914.81;;;8.58;93.27
46394;BME280;32099;53.588;10.176;2023-12-29T04:32:16;99896.38;;;8.38;93.51
46394;BME280;32099;53.588;10.176;2023-12-29T04:34:43;99900.28;;;8.21;94.34
46394;BME280;32099;53.588;10.176;2023-12-29T04:37:09;99888.22;;;8.08;95.71
46394;BME280;32099;53.588;10.176;2023-12-29T04:39:37;99853.78;;;7.94;94.07
46394;BME280;32099;53.588;10.176;2023-12-29T04:42:03;99833.56;;;7.81;94.15
46394;BME280;32099;53.588;10.176;2023-12-29T04:44:29;99823.34;;;7.68;94.23
46394;BME280;32099;53.588;10.176;2023-12-29T04:46:55;99807.75;;;7.55;94.29
46394;BME280;32099;53.588;10.176;2023-12-29T04:49:21;99813.25;;;7.47;94.70
46394;BME280;32099;53.588;10.176;2023-12-29T04:51:47;99827.91;;;7.38;94.41
46394;BME280;32099;53.588;10.176;2023-12-29T04:54:12;99835.09;;;7.31;94.32
46394;BME280;32099;53.588;10.176;2023-12-29T04:56:41;99830.44;;;7.24;94.70
46394;BME280;32099;53.588;10.176;2023-12-29T04:59:07;99834.53;;;7.20;96.18
46394;BME280;32099;53.588;10.176;2023-12-29T05:01:32;99838.34;;;7.11;97.90
46394;BME280;32099;53.588;10.176;2023-12-29T05:03:58;99836.06;;;7.00;99.19
46394;BME280;32099;53.588;10.176;2023-12-29T05:06:24;99820.72;;;6.92;98.86
46394;BME280;32099;53.588;10.176;2023-12-29T05:08:49;99825.00;;;6.86;99.19
46394;BME280;32099;53.588;10.176;2023-12-29T05:11:15;99823.97;;;6.87;99.60
46394;BME280;32099;53.588;10.176;2023-12-29T05:13:43;99820.41;;;6.87;98.71
46394;BME280;32099;53.588;10.176;2023-12-29T05:16:09;99824.25;;;6.92;99.17
46394;BME280;32099;53.588;10.176;2023-12-29T05:18:35;99825.78;;;6.95;99.64
46394;BME280;32099;53.588;10.176;2023-12-29T05:21:00;99816.44;;;6.98;99.04
46394;BME280;32099;53.588;10.176;2023-12-29T05:23:26;99813.16;;;7.02;98.75
46394;BME280;32099;53.588;10.176;2023-12-29T05:25:52;99810.75;;;7.07;99.26
46394;BME280;32099;53.588;10.176;2023-12-29T05:28:17;99808.53;;;7.11;99.50
46394;BME280;32099;53.588;10.176;2023-12-29T05:30:46;99808.63;;;7.18;98.00
46394;BME280;32099;53.588;10.176;2023-12-29T05:33:11;99755.19;;;6.88;98.45
46394;BME280;32099;53.588;10.176;2023-12-29T05:35:37;99807.59;;;7.19;98.34
46394;BME280;32099;53.588;10.176;2023-12-29T05:38:03;99815.06;;;7.17;98.59
46394;BME280;32099;53.588;10.176;2023-12-29T05:40:29;99814.41;;;7.15;97.95
46394;BME280;32099;53.588;10.176;2023-12-29T05:42:55;99819.47;;;7.18;98.24
46394;BME280;32099;53.588;10.176;2023-12-29T05:45:20;99814.06;;;7.18;97.91
46394;BME280;32099;53.588;10.176;2023-12-29T05:47:49;99833.03;;;7.18;98.47
46394;BME280;32099;53.588;10.176;2023-12-29T05:50:15;99826.75;;;7.17;98.53
46394;BME280;32099;53.588;10.176;2023-12-29T05:52:41;99823.88;;;7.19;98.02
46394;BME280;32099;53.588;10.176;2023-12-29T05:55:07;99827.22;;;7.21;98.51
46394;BME280;32099;53.588;10.176;2023-12-29T05:57:33;99829.09;;;7.20;98.96
46394;BME280;32099;53.588;10.176;2023-12-29T05:59:59;99825.19;;;7.23;98.90
46394;BME280;32099;53.588;10.176;2023-12-29T06:02:25;99827.72;;;7.24;98.17
46394;BME280;32099;53.588;10.176;2023-12-29T06:04:53;99827.34;;;7.28;98.82
46394;BME280;32099;53.588;10.176;2023-12-29T06:07:19;99824.47;;;7.29;99.12
46394;BME280;32099;53.588;10.176;2023-12-29T06:09:45;99834.56;;;7.35;98.80
46394;BME280;32099;53.588;10.176;2023-12-29T06:12:10;99848.22;;;7.42;99.05
46394;BME280;32099;53.588;10.176;2023-12-29T06:14:36;99843.25;;;7.46;98.79
46394;BME280;32099;53.588;10.176;2023-12-29T06:17:02;99835.78;;;7.48;99.21
46394;BME280;32099;53.588;10.176;2023-12-29T06:19:28;99830.38;;;7.48;100.00
46394;BME280;32099;53.588;10.176;2023-12-29T06:21:56;99845.41;;;7.50;99.96
46394;BME280;32099;53.588;10.176;2023-12-29T06:24:22;99844.69;;;7.56;99.49
46394;BME280;32099;53.588;10.176;2023-12-29T06:26:47;99858.72;;;7.60;99.42
46394;BME280;32099;53.588;10.176;2023-12-29T06:29:13;99859.84;;;7.66;98.95
46394;BME280;32099;53.588;10.176;2023-12-29T06:31:39;99864.72;;;7.70;99.55
46394;BME280;32099;53.588;10.176;2023-12-29T06:34:05;99836.56;;;7.56;99.59
46394;BME280;32099;53.588;10.176;2023-12-29T06:36:31;99862.47;;;7.74;99.54
46394;BME280;32099;53.588;10.176;2023-12-29T06:38:59;99869.94;;;7.72;99.61
46394;BME280;32099;53.588;10.176;2023-12-29T06:41:25;99854.69;;;7.71;99.01
46394;BME280;32099;53.588;10.176;2023-12-29T06:43:50;99860.78;;;7.73;98.69
46394;BME280;32099;53.588;10.176;2023-12-29T06:46:16;99858.06;;;7.73;99.00
46394;BME280;32099;53.588;10.176;2023-12-29T06:48:42;99866.88;;;7.75;99.80
46394;BME280;32099;53.588;10.176;2023-12-29T06:51:08;99867.53;;;7.77;98.51
46394;BME280;32099;53.588;10.176;2023-12-29T06:53:34;99867.75;;;7.76;99.72
46394;BME280;32099;53.588;10.176;2023-12-29T06:56:02;99880.44;;;7.75;99.56
46394;BME280;32099;53.588;10.176;2023-12-29T06:58:29;99866.88;;;7.75;100.00
46394;BME280;32099;53.588;10.176;2023-12-29T07:00:56;99805.38;;;7.37;99.47
46394;BME280;32099;53.588;10.176;2023-12-29T07:03:21;99871.06;;;7.78;100.00
46394;BME280;32099;53.588;10.176;2023-12-29T07:05:47;99871.94;;;7.78;99.51
46394;BME280;32099;53.588;10.176;2023-12-29T07:08:13;99869.69;;;7.82;99.52
46394;BME280;32099;53.588;10.176;2023-12-29T07:10:38;99858.63;;;7.83;99.78
46394;BME280;32099;53.588;10.176;2023-12-29T07:13:07;99865.75;;;7.84;99.31
46394;BME280;32099;53.588;10.176;2023-12-29T07:15:32;99860.16;;;7.86;99.74
46394;BME280;32099;53.588;10.176;2023-12-29T07:17:58;99859.75;;;7.89;98.90
46394;BME280;32099;53.588;10.176;2023-12-29T07:20:23;99852.94;;;7.93;97.90
46394;BME280;32099;53.588;10.176;2023-12-29T07:22:49;99858.81;;;7.97;99.01
46394;BME280;32099;53.588;10.176;2023-12-29T07:25:15;99859.69;;;7.97;98.38
46394;BME280;32099;53.588;10.176;2023-12-29T07:27:40;99863.69;;;8.01;98.91
46394;BME280;32099;53.588;10.176;2023-12-29T07:30:10;99855.19;;;8.05;98.19
46394;BME280;32099;53.588;10.176;2023-12-29T07:32:36;99861.25;;;8.07;97.35
46394;BME280;32099;53.588;10.176;2023-12-29T07:35:02;99852.91;;;8.08;98.17
46394;BME280;32099;53.588;10.176;2023-12-29T07:37:28;99850.22;;;8.08;97.74
46394;BME280;32099;53.588;10.176;2023-12-29T07:39:54;99848.53;;;8.07;98.33
46394;BME280;32099;53.588;10.176;2023-12-29T07:42:19;99853.59;;;8.10;97.55
46394;BME280;32099;53.588;10.176;2023-12-29T07:44:45;99846.09;;;8.12;97.72
46394;BME280;32099;53.588;10.176;2023-12-29T07:47:14;99843.19;;;8.14;96.82
46394;BME280;32099;53.588;10.176;2023-12-29T07:49:41;99848.59;;;8.14;97.10
46394;BME280;32099;53.588;10.176;2023-12-29T07:52:06;99845.31;;;8.18;97.61
46394;BME280;32099;53.588;10.176;2023-12-29T07:54:32;99846.19;;;8.19;97.54
46394;BME280;32099;53.588;10.176;2023-12-29T07:56:58;99855.16;;;8.19;96.88
46394;BME280;32099;53.588;10.176;2023-12-29T07:59:23;99858.16;;;8.25;96.64
46394;BME280;32099;53.588;10.176;2023-12-29T08:01:49;99850.66;;;8.27;96.50
46394;BME280;32099;53.588;10.176;2023-12-29T08:04:17;99861.34;;;8.28;96.95
46394;BME280;32099;53.588;10.176;2023-12-29T08:06:43;99873.50;;;8.32;97.67
46394;BME280;32099;53.588;10.176;2023-12-29T08:09:09;99866.19;;;8.33;97.63
46394;BME280;32099;53.588;10.176;2023-12-29T08:11:34;99865.16;;;8.34;97.18
46394;BME280;32099;53.588;10.176;2023-12-29T08:14:00;99858.69;;;8.35;96.90
46394;BME280;32099;53.588;10.176;2023-12-29T08:16:25;99864.78;;;8.37;96.39
46394;BME280;32099;53.588;10.176;2023-12-29T08:18:51;99857.31;;;8.39;96.51
46394;BME280;32099;53.588;10.176;2023-12-29T08:21:19;99859.44;;;8.44;95.71
46394;BME280;32099;53.588;10.176;2023-12-29T08:23:45;99847.34;;;8.46;95.44
46394;BME280;32099;53.588;10.176;2023-12-29T08:26:11;99852.44;;;8.49;94.92
46394;BME280;32099;53.588;10.176;2023-12-29T08:28:37;99856.44;;;8.54;95.47
46394;BME280;32099;53.588;10.176;2023-12-29T08:31:03;99849.31;;;8.53;94.93
46394;BME280;32099;53.588;10.176;2023-12-29T08:33:28;99859.16;;;8.54;94.75
46394;BME280;32099;53.588;10.176;2023-12-29T08:35:54;99855.41;;;8.55;94.24
46394;BME280;32099;53.588;10.176;2023-12-29T08:38:22;99853.53;;;8.55;93.80
46394;BME280;32099;53.588;10.176;2023-12-29T08:40:48;99852.69;;;8.55;92.90
46394;BME280;32099;53.588;10.176;2023-12-29T08:43:14;99855.03;;;8.58;94.14
46394;BME280;32099;53.588;10.176;2023-12-29T08:45:39;99861.94;;;8.60;93.63
46394;BME280;32099;53.588;10.176;2023-12-29T08:48:05;99863.44;;;8.63;92.97
46394;BME280;32099;53.588;10.176;2023-12-29T08:50:31;99859.97;;;8.69;93.32
46394;BME280;32099;53.588;10.176;2023-12-29T08:52:57;99819.06;;;8.41;93.36
46394;BME280;32099;53.588;10.176;2023-12-29T08:55:25;99864.00;;;8.73;93.24
46394;BME280;32099;53.588;10.176;2023-12-29T08:57:51;99871.94;;;8.75;92.79
46394;BME280;32099;53.588;10.176;2023-12-29T09:00:16;99877.81;;;8.78;92.06
46394;BME280;32099;53.588;10.176;2023-12-29T09:02:42;99870.78;;;8.84;92.98
46394;BME280;32099;53.588;10.176;2023-12-29T09:05:08;99882.38;;;8.93;92.93
46394;BME280;32099;53.588;10.176;2023-12-29T09:07:34;99870.25;;;8.95;93.11
46394;BME280;32099;53.588;10.176;2023-12-29T09:09:59;99868.66;;;9.01;93.14
46394;BME280;32099;53.588;10.176;2023-12-29T09:12:28;99868.25;;;9.04;93.29
46394;BME280;32099;53.588;10.176;2023-12-29T09:14:53;99861.13;;;9.03;92.93
46394;BME280;32099;53.588;10.176;2023-12-29T09:17:19;99901.94;;;9.03;93.67
46394;BME280;32099;53.588;10.176;2023-12-29T09:19:45;99899.34;;;8.95;96.76
46394;BME280;32099;53.588;10.176;2023-12-29T09:22:10;99915.13;;;8.85;97.21
46394;BME280;32099;53.588;10.176;2023-12-29T09:24:36;99895.88;;;8.64;95.76
46394;BME280;32099;53.588;10.176;2023-12-29T09:27:02;99863.03;;;8.29;94.41
46394;BME280;32099;53.588;10.176;2023-12-29T09:29:30;99870.81;;;8.02;95.93
46394;BME280;32099;53.588;10.176;2023-12-29T09:31:56;99882.03;;;7.84;98.93
46394;BME280;32099;53.588;10.176;2023-12-29T09:34:22;99905.63;;;7.69;100.00
46394;BME280;32099;53.588;10.176;2023-12-29T09:36:47;99910.28;;;7.60;100.00
46394;BME280;32099;53.588;10.176;2023-12-29T09:39:13;99916.06;;;7.57;100.00
46394;BME280;32099;53.588;10.176;2023-12-29T09:41:39;99911.66;;;7.56;100.00
46394;BME280;32099;53.588;10.176;2023-12-29T09:44:13;99902.69;;;7.55;100.00
46394;BME280;32099;53.588;10.176;2023-12-29T09:46:42;99927.13;;;7.55;100.00
46394;BME280;32099;53.588;10.176;2023-12-29T09:49:09;99921.13;;;7.60;100.00
46394;BME280;32099;53.588;10.176;2023-12-29T09:51:37;99921.97;;;7.61;100.00
46394;BME280;32099;53.588;10.176;2023-12-29T09:54:04;99919.91;;;7.63;100.00
46394;BME280;32099;53.588;10.176;2023-12-29T09:56:30;99917.50;;;7.68;100.00
46394;BME280;32099;53.588;10.176;2023-12-29T09:58:56;99928.81;;;7.71;100.00
46394;BME280;32099;53.588;10.176;2023-12-29T10:01:22;99905.72;;;7.76;100.00
46394;BME280;32099;53.588;10.176;2023-12-29T10:03:52;99899.75;;;7.80;100.00
46394;BME280;32099;53.588;10.176;2023-12-29T10:06:19;99898.78;;;7.88;100.00
46394;BME280;32099;53.588;10.176;2023-12-29T10:08:48;99901.81;;;7.93;100.00
46394;BME280;32099;53.588;10.176;2023-12-29T10:11:15;99898.72;;;7.96;100.00
46394;BME280;32099;53.588;10.176;2023-12-29T10:13:44;99898.53;;;7.98;100.00
46394;BME280;32099;53.588;10.176;2023-12-29T10:16:15;99896.47;;;8.00;100.00
46394;BME280;32099;53.588;10.176;2023-12-29T10:18:53;99897.28;;;8.00;100.00
46394;BME280;32099;53.588;10.176;2023-12-29T10:21:27;99880.19;;;8.00;100.00
46394;BME280;32099;53.588;10.176;2023-12-29T10:23:56;99887.50;;;7.99;100.00
46394;BME280;32099;53.588;10.176;2023-12-29T10:26:28;99891.03;;;8.00;100.00
46394;BME280;32099;53.588;10.176;2023-12-29T10:28:54;99879.34;;;7.99;100.00
46394;BME280;32099;53.588;10.176;2023-12-29T10:31:22;99883.91;;;7.99;100.00
46394;BME280;32099;53.588;10.176;2023-12-29T10:33:53;99891.03;;;8.00;100.00
46394;BME280;32099;53.588;10.176;2023-12-29T10:36:46;99885.25;;;8.03;100.00
46394;BME280;32099;53.588;10.176;2023-12-29T10:39:12;99887.97;;;8.03;100.00
46394;BME280;32099;53.588;10.176;2023-12-29T10:41:37;99891.34;;;8.05;99.39
46394;BME280;32099;53.588;10.176;2023-12-29T10:44:06;99883.00;;;8.07;99.26
46394;BME280;32099;53.588;10.176;2023-12-29T10:46:32;99892.16;;;8.06;99.64
46394;BME280;32099;53.588;10.176;2023-12-29T10:49:08;99894.88;;;8.06;98.61
46394;BME280;32099;53.588;10.176;2023-12-29T10:51:35;99895.72;;;8.06;99.10
46394;BME280;32099;53.588;10.176;2023-12-29T10:54:01;99901.81;;;8.08;99.42
46394;BME280;32099;53.588;10.176;2023-12-29T10:56:27;99899.28;;;8.07;99.04
46394;BME280;32099;53.588;10.176;2023-12-29T10:58:59;99915.38;;;8.08;99.00
46394;BME280;32099;53.588;10.176;2023-12-29T11:01:25;99899.09;;;8.08;99.74
46394;BME280;32099;53.588;10.176;2023-12-29T11:03:56;99904.50;;;8.08;99.53
46394;BME280;32099;53.588;10.176;2023-12-29T11:06:25;99905.19;;;8.10;99.57
46394;BME280;32099;53.588;10.176;2023-12-29T11:08:52;99890.78;;;8.10;99.54
46394;BME280;32099;53.588;10.176;2023-12-29T11:11:18;99894.69;;;8.07;99.76
46394;BME280;32099;53.588;10.176;2023-12-29T11:13:43;99890.66;;;8.03;99.45
46394;BME280;32099;53.588;10.176;2023-12-29T11:16:11;99889.81;;;8.02;99.58
46394;BME280;32099;53.588;10.176;2023-12-29T11:18:38;99882.34;;;8.05;99.68
46394;BME280;32099;53.588;10.176;2023-12-29T11:21:06;99872.78;;;8.09;99.60
46394;BME280;32099;53.588;10.176;2023-12-29T11:23:36;99872.22;;;8.13;99.64
46394;BME280;32099;53.588;10.176;2023-12-29T11:26:02;99865.38;;;8.17;98.82
46394;BME280;32099;53.588;10.176;2023-12-29T11:28:29;99864.81;;;8.22;99.07
46394;BME280;32099;53.588;10.176;2023-12-29T11:30:54;99870.72;;;8.26;98.69
46394;BME280;32099;53.588;10.176;2023-12-29T11:33:21;99865.28;;;8.26;99.10
46394;BME280;32099;53.588;10.176;2023-12-29T11:35:51;99863.22;;;8.28;99.27
46394;BME280;32099;53.588;10.176;2023-12-29T11:38:28;99860.09;;;8.31;99.55
46394;BME280;32099;53.588;10.176;2023-12-29T11:41:10;99871.63;;;8.33;99.60
46394;BME280;32099;53.588;10.176;2023-12-29T11:43:54;99876.03;;;8.34;99.59
46394;BME280;32099;53.588;10.176;2023-12-29T11:46:34;99875.66;;;8.37;99.23
46394;BME280;32099;53.588;10.176;2023-12-29T11:49:00;99855.63;;;8.38;98.99
46394;BME280;32099;53.588;10.176;2023-12-29T11:51:29;99845.38;;;8.40;99.66
46394;BME280;32099;53.588;10.176;2023-12-29T11:53:59;99852.97;;;8.45;98.86
46394;BME280;32099;53.588;10.176;2023-12-29T11:56:33;99853.81;;;8.45;98.55
46394;BME280;32099;53.588;10.176;2023-12-29T11:59:12;99843.13;;;8.44;98.31
46394;BME280;32099;53.588;10.176;2023-12-29T12:01:38;99848.75;;;8.42;97.70
46394;BME280;32099;53.588;10.176;2023-12-29T12:04:04;99845.84;;;8.44;98.05
46394;BME280;32099;53.588;10.176;2023-12-29T12:06:59;99864.88;;;8.44;98.78
46394;BME280;32099;53.588;10.176;2023-12-29T12:09:25;99845.84;;;8.44;98.86
46394;BME280;32099;53.588;10.176;2023-12-29T12:11:53;99845.66;;;8.45;98.84
46394;BME280;32099;53.588;10.176;2023-12-29T12:17:12;99842.84;;;8.54;97.70
46394;BME280;32099;53.588;10.176;2023-12-29T12:19:51;99844.53;;;8.55;98.15
46394;BME280;32099;53.588;10.176;2023-12-29T12:22:18;99840.78;;;8.56;97.48
46394;BME280;32099;53.588;10.176;2023-12-29T12:24:46;99830.38;;;8.59;96.76
46394;BME280;32099;53.588;10.176;2023-12-29T12:27:14;99826.63;;;8.60;97.67
46394;BME280;32099;53.588;10.176;2023-12-29T12:29:40;99823.53;;;8.63;95.88
46394;BME280;32099;53.588;10.176;2023-12-29T12:32:06;99774.13;;;8.38;96.72
46394;BME280;32099;53.588;10.176;2023-12-29T12:34:36;99822.56;;;8.71;96.34
46394;BME280;32099;53.588;10.176;2023-12-29T12:37:02;99647.50;;;7.42;96.53
46394;BME280;32099;53.588;10.176;2023-12-29T12:39:37;99822.22;;;8.81;96.20
46394;BME280;32099;53.588;10.176;2023-12-29T12:42:03;99820.81;;;8.85;95.02
46394;BME280;32099;53.588;10.176;2023-12-29T12:44:32;99822.88;;;8.83;93.59
46394;BME280;32099;53.588;10.176;2023-12-29T12:46:59;99822.69;;;8.85;95.00
46394;BME280;32099;53.588;10.176;2023-12-29T12:49:31;99825.88;;;8.88;95.20
46394;BME280;32099;53.588;10.176;2023-12-29T12:51:57;99818.38;;;8.90;95.45
46394;BME280;32099;53.588;10.176;2023-12-29T12:54:22;99810.78;;;8.86;93.94
46394;BME280;32099;53.588;10.176;2023-12-29T12:56:48;99812.22;;;8.82;93.27
46394;BME280;32099;53.588;10.176;2023-12-29T12:59:15;99808.63;;;8.81;94.75